Currently 66°F in Moreno Valley, California, USA
66°F
80°F / 54°F
calm
0.00"
Wednesday, January 17, 2018 6:04 PM PST

Moreno Valley, California Weather Summary
Last 36 Hours

Temperature Winds Hourly Humidity Dewpoint
Time Report Norm Report Norm Max Gusts Precip. Rpt. Norm Rpt. Norm Pressure
1Wed 06:04 PM  66.3°F  58°F  calm  2 mph  none  0.00"  46%  49%  44°F  38°F  28.25"
Wed 06:00 PM  66.4°F  58°F  calm  3 mph  5 mph  0.00"  45%  49%  44°F  38°F  28.25"
Wed 05:00 PM  72.6°F  62°F  calm  2 mph  8 mph  0.00"  38%  44%  44°F  39°F  28.24"
Wed 04:00 PM  78.0°F  66°F  calm  4 mph  13 mph  0.00"  29%  39%  42°F  39°F  28.25"
Wed 03:00 PM  79.3°F  67°F  3 mph S  5 mph  8 mph  0.00"  29%  37%  43°F  39°F  28.24"
2Wed 02:18 PM  80.4°F  68°F  calm  5 mph  6 mph  ----  27%  36%  42°F  39°F  28.23"
Wed 02:00 PM  79.9°F  68°F  3 mph E  4 mph  11 mph  0.00"  28%  36%  43°F  39°F  28.24"
Wed 01:00 PM  77.4°F  67°F  3 mph SE  4 mph  14 mph  0.00"  29%  37%  42°F  39°F  28.25"
Wed 12:00 PM  74.8°F  66°F  4 mph SE  4 mph  15 mph  0.00"  33%  39%  43°F  39°F  28.28"
Wed 11:00 AM  74.0°F  64°F  4 mph SE  4 mph  17 mph  0.00"  34%  42%  43°F  39°F  28.31"
Wed 10:00 AM  72.0°F  61°F  11 mph SE  3 mph  20 mph  0.00"  36%  46%  42°F  40°F  28.32"
Wed 09:00 AM  69.6°F  58°F  9 mph E  2 mph  17 mph  0.00"  39%  50%  42°F  39°F  28.31"
Wed 08:00 AM  66.4°F  53°F  7 mph E  1 mph  17 mph  0.00"  42%  57%  41°F  38°F  28.31"
Wed 07:00 AM  60.6°F  50°F  calm  2 mph  11 mph  0.00"  50%  58%  41°F  35°F  28.29"
Wed 06:00 AM  57.1°F  50°F  5 mph E  1 mph  4 mph  0.00"  56%  58%  41°F  35°F  28.27"
3Wed 05:04 AM  54.2°F  51°F  3 mph E  1 mph  4 mph  ----  65%  57%  42°F  35°F  28.26"
Wed 05:00 AM  54.2°F  51°F  4 mph E  1 mph  3 mph  0.00"  66%  57%  43°F  35°F  28.26"
Wed 04:00 AM  54.7°F  51°F  calm  2 mph  none  0.00"  66%  57%  43°F  35°F  28.26"
Wed 03:00 AM  55.9°F  51°F  calm  2 mph  3 mph  0.00"  61%  57%  42°F  36°F  28.26"
Wed 02:00 AM  57.7°F  51°F  calm  2 mph  4 mph  0.00"  60%  57%  43°F  36°F  28.27"
Wed 01:00 AM  57.5°F  52°F  calm  1 mph  5 mph  0.00"  61%  57%  44°F  36°F  28.26"
Wed 12:00 AM  57.5°F  52°F  calm  1 mph  4 mph  0.00"  63%  57%  44°F  37°F  28.27"
Tue 11:00 PM  57.9°F  53°F  calm  1 mph  5 mph  0.00"  61%  56%  44°F  37°F  28.27"
Tue 10:00 PM  57.8°F  53°F  calm  1 mph  none  0.00"  64%  55%  45°F  37°F  28.28"
Tue 09:00 PM  59.4°F  54°F  calm  2 mph  none  0.00"  59%  54%  45°F  37°F  28.28"
Tue 08:00 PM  59.6°F  56°F  calm  2 mph  4 mph  0.00"  60%  52%  45°F  38°F  28.27"
Tue 07:00 PM  60.8°F  57°F  calm  2 mph  none  0.00"  59%  50%  46°F  38°F  28.26"
Tue 06:00 PM  62.2°F  58°F  calm  3 mph  4 mph  0.00"  56%  48%  46°F  38°F  28.25"
Tue 05:00 PM  64.7°F  62°F  calm  2 mph  none  0.00"  54%  43%  47°F  39°F  28.24"
Tue 04:00 PM  68.8°F  66°F  calm  4 mph  5 mph  0.00"  43%  38%  44°F  39°F  28.23"
Tue 03:00 PM  70.9°F  68°F  4 mph SW  5 mph  7 mph  0.00"  38%  37%  43°F  39°F  28.23"
Tue 02:00 PM  70.7°F  68°F  1 mph NW  4 mph  10 mph  0.00"  38%  36%  43°F  39°F  28.23"
Tue 01:00 PM  71.8°F  67°F  6 mph NW  4 mph  10 mph  0.00"  40%  37%  45°F  39°F  28.25"
Tue 12:00 PM  71.4°F  66°F  2 mph SW  4 mph  7 mph  0.00"  36%  39%  42°F  39°F  28.26"
Tue 11:00 AM  67.4°F  64°F  calm  4 mph  5 mph  0.00"  44%  42%  44°F  40°F  28.30"
Tue 10:00 AM  64.9°F  61°F  1 mph SE  3 mph  9 mph  0.00"  46%  47%  43°F  40°F  28.28"
Tue 09:00 AM  62.4°F  58°F  calm  3 mph  3 mph  0.00"  57%  50%  46°F  39°F  28.28"
Tue 08:00 AM  55.3°F  53°F  calm  2 mph  2 mph  0.00"  73%  57%  46°F  38°F  28.27"
Tue 07:00 AM  53.3°F  50°F  2 mph NE  2 mph  2 mph  0.00"  74%  58%  45°F  35°F  28.26"

  1. Current weather data. No green row appears if the current weather data is also the high or low for the current day.
  2. High temperature for the current day.
  3. Low temperature for the current day.

The Moreno Valley, California weather pages are a service of WeatherCurrents. Moreno Valley is located in Southern California's Inland Empire, east of Riverside and north of Perris, along the State Route 60 freeway.
Copyright ©Wed Jan 17 18:05:12 PST 2018  WeatherCurrents. All rights reserved. - Submit questions and comments - Privacy Policy

This page automatically refreshes every 10 minutes.